Detall de PIREP

Printer-friendly versionPDF version

[2014/08/06 08:00:00]
Flight IATA:CT1004
Pilot Number:042
Company ICAO:CAT
Aircraft Type:B738/F
PAX:96
Departing Airport: LEBL
Destination Airport: LIPZ
Alternate Airport:LIMC
Online: VATSIM
Route:AGENA UM985 UNANA UM985 OSKOR UL615 ADOSA L612 ALBET
Flight Level:F310
No Slew and time accel
No pause
Crash detect
Detect pilot in Cockpit between each 30 and 45 minutes
08:00 Zero fuel Weight: 121805 Lbs, Fuel Weight: 45553 Lbs
08:00 VATSIM:LEBL 060730Z 32003KT 250V010 9999 FEW030 24/16 Q1017 NOSIG
08:00 VATSIM:LIPZ 060750Z 29006KT CAVOK 25/17 Q1013
08:12 Parking Brakes off
08:42 Take-off
08:42 Take off Weight: 166387 Lbs
08:42 Wind: 220º @ 005 Knots Heading: 244º
08:42 POS N41º 16´ 57´´ E002º 04´ 32´´
08:42 Flaps:4 at 169 Knots
08:42 Gear Up: 159 Knots
08:43 Flaps:3 at 112 Knots
08:43 Flaps:2 at 209 Knots
08:45 Flaps:1 at 231 Knots
08:45 Flaps:0 at 231 Knots
08:57 Wind:257º@000 Knots Heading: 052º Ground Speed: 437 Knots Altitude 18274 ft
09:12 Wind:340º@007 Knots Heading: 038º Ground Speed: 450 Knots Altitude 30249 ft
09:13 TOC
09:13 Fuel Weight: 39491 Lb
09:27 Wind:170º@005 Knots Heading: 054º Ground Speed: 497 Knots Altitude 31023 ft
09:42 Wind:001º@000 Knots Heading: 030º Ground Speed: 503 Knots Altitude 31046 ft
09:49 TOD
09:49 Fuel Weight: 35955 Lb
09:57 Wind:202º@002 Knots Heading: 269º Ground Speed: 359 Knots Altitude 18786 ft
10:06 Flaps:1 at 253 Knots
10:12 Wind:240º@003 Knots Heading: 041º Ground Speed: 273 Knots Altitude 3677 ft
10:12 Flaps:2 at 249 Knots
10:14 Flaps:3 at 191 Knots
10:14 Gear Down: 187 Knots
10:14 Flaps:4 at 186 Knots
10:14 Gear Up: 184 Knots
10:14 Gear Down: 183 Knots
10:14 Flaps:5 at 182 Knots
10:14 Gear Up: 171 Knots
10:14 Gear Down: 169 Knots
10:15 Flaps:6 at 168 Knots
10:15 Gear Up: 156 Knots
10:15 Gear Down: 156 Knots
10:15 Flaps:7 at 155 Knots
10:15 Flaps:8 at 149 Knots
10:16 TouchDown:Rate -139 ft/min Speed: 142 Knots
10:17 VATSIM:LIPZ 060950Z 30006KT CAVOK 27/15 Q1013
10:17 Land
10:17 Wind:297º@005 Knots
10:17 Heading: 040º
10:17 Flight Duration: 01:35
10:17 Landing Weight: 156241 Lbs
10:17 POS N45º 30´ 12´´ E012º 20´ 59´´
10:23 Parking brakes on
10:23 Block to Block Duration: 02:11
10:23 Final Fuel: 33798 Lbls
10:23 Spent Fuel: 11754 Lbls
10:23 Flight Length: 654 NM
10:23 TOD Land Length: 157 NM

Exportar CSV

Powered by Drupal - Modified by Danger4k